createdAt,value
2023-07-18T00:01:15.741Z,52.70
2023-07-18T00:06:26.369Z,53.03
2023-07-18T00:11:32.599Z,53.20
2023-07-18T00:16:38.873Z,53.53
2023-07-18T00:21:45.149Z,54.05
2023-07-18T00:26:50.623Z,54.20
2023-07-18T00:31:56.253Z,54.12
2023-07-18T00:37:03.469Z,54.06
2023-07-18T00:42:10.346Z,53.92
2023-07-18T00:47:17.063Z,53.84
2023-07-18T00:52:23.635Z,53.75
2023-07-18T00:57:30.103Z,53.79
2023-07-18T01:02:36.202Z,53.93
2023-07-18T01:07:44.474Z,53.94
2023-07-18T01:12:50.388Z,53.92
2023-07-18T01:17:56.674Z,54.14
2023-07-18T01:23:05.660Z,53.97
2023-07-18T01:28:13.840Z,54.16
2023-07-18T01:33:19.935Z,54.46
2023-07-18T01:38:31.241Z,54.49
2023-07-18T01:43:37.670Z,54.84
2023-07-18T01:48:44.079Z,55.05
2023-07-18T01:53:51.081Z,55.06
2023-07-18T01:58:57.871Z,55.44
2023-07-18T02:04:07.164Z,55.97
2023-07-18T02:09:14.286Z,56.03
2023-07-18T02:14:21.725Z,56.22
2023-07-18T02:19:27.260Z,56.63
2023-07-18T02:24:32.943Z,56.66
2023-07-18T02:29:39.572Z,56.91
2023-07-18T02:34:46.247Z,57.15
2023-07-18T02:39:52.807Z,57.08
2023-07-18T02:44:59.992Z,57.28
2023-07-18T02:50:06.727Z,57.56
2023-07-18T02:55:13.342Z,57.38
2023-07-18T03:00:27.594Z,57.48
2023-07-18T03:05:34.742Z,57.81
2023-07-18T03:10:43.515Z,58.01
2023-07-18T03:15:49.097Z,57.99
2023-07-18T03:20:55.567Z,58.25
2023-07-18T03:26:02.792Z,58.66
2023-07-18T03:31:09.485Z,59.11
2023-07-18T03:38:33.397Z,59.39
2023-07-18T03:44:09.983Z,59.46
2023-07-18T03:49:16.321Z,59.66
2023-07-18T03:54:22.844Z,59.58
2023-07-18T03:59:29.969Z,59.87
2023-07-18T04:04:36.332Z,60.05
2023-07-18T04:09:42.787Z,59.99
2023-07-18T04:14:49.811Z,60.02
2023-07-18T04:20:00.722Z,59.91
2023-07-18T04:25:08.075Z,60.08
2023-07-18T04:30:15.497Z,60.19
2023-07-18T04:35:21.535Z,60.23
2023-07-18T04:40:27.073Z,60.42
2023-07-18T04:45:33.362Z,60.21
2023-07-18T04:50:40.144Z,60.15
2023-07-18T04:55:47.137Z,60.07
2023-07-18T05:00:55.786Z,59.85
2023-07-18T05:06:02.215Z,59.52
2023-07-18T05:11:07.684Z,59.69
2023-07-18T05:16:13.761Z,59.60
2023-07-18T05:21:19.845Z,59.74
2023-07-18T05:26:26.331Z,59.70
2023-07-18T05:31:32.277Z,59.38
2023-07-18T05:36:37.936Z,58.70
2023-07-18T05:41:43.664Z,58.01
2023-07-18T05:46:49.482Z,57.10
2023-07-18T05:51:55.196Z,56.68
2023-07-18T05:57:01.157Z,56.23
2023-07-18T06:02:07.017Z,55.46
2023-07-18T06:07:13.653Z,55.12
2023-07-18T06:12:19.252Z,54.55
2023-07-18T06:17:25.377Z,53.74
2023-07-18T06:22:32.179Z,53.36
2023-07-18T06:27:37.911Z,53.10
2023-07-18T06:32:44.375Z,53.13
2023-07-18T06:37:51.476Z,52.85
2023-07-18T06:42:58.606Z,52.80
2023-07-18T06:48:04.739Z,53.11
2023-07-18T06:53:11.382Z,53.10
2023-07-18T06:58:18.169Z,52.74
2023-07-18T07:03:24.576Z,52.44
2023-07-18T07:08:31.148Z,52.21
2023-07-18T07:13:38.403Z,51.66
2023-07-18T07:18:45.686Z,51.69
2023-07-18T07:23:53.723Z,51.63
2023-07-18T07:29:00.794Z,51.65
2023-07-18T07:34:06.874Z,51.50
2023-07-18T07:39:17.264Z,51.35
2023-07-18T07:44:23.012Z,51.20
2023-07-18T07:49:28.827Z,51.37
2023-07-18T07:54:34.824Z,51.43
2023-07-18T07:59:40.548Z,51.22
2023-07-18T08:04:47.135Z,50.34
2023-07-18T08:09:53.459Z,50.04
2023-07-18T08:15:00.530Z,50.16
2023-07-18T08:20:07.957Z,50.21
2023-07-18T08:25:13.767Z,49.75
2023-07-18T08:30:21.453Z,49.56
2023-07-18T08:35:27.772Z,48.88
2023-07-18T08:40:34.473Z,48.03
2023-07-18T08:45:40.627Z,47.74
2023-07-18T08:50:47.237Z,47.30
2023-07-18T08:55:53.977Z,47.39
2023-07-18T09:01:01.246Z,46.86
2023-07-18T09:06:19.200Z,47.04
2023-07-18T09:11:26.171Z,46.24
2023-07-18T09:16:31.952Z,46.20
2023-07-18T09:21:38.810Z,46.55
2023-07-18T09:26:45.432Z,46.05
2023-07-18T09:31:53.125Z,45.38
2023-07-18T09:37:00.362Z,45.45
2023-07-18T09:42:10.762Z,45.80
2023-07-18T09:47:19.555Z,45.14
2023-07-18T09:52:29.894Z,44.80
2023-07-18T09:57:37.377Z,44.67
2023-07-18T10:02:44.159Z,45.23
2023-07-18T10:07:51.305Z,45.59
2023-07-18T10:13:04.548Z,45.18
2023-07-18T10:18:24.261Z,45.37
2023-07-18T10:23:45.532Z,45.25
2023-07-18T10:28:51.929Z,45.37
2023-07-18T10:34:11.711Z,45.32
2023-07-18T10:39:18.210Z,44.86
2023-07-18T10:44:24.575Z,44.30
2023-07-18T10:49:31.537Z,44.14
2023-07-18T10:54:38.303Z,43.97
2023-07-18T10:59:46.495Z,43.42
2023-07-18T11:04:53.812Z,43.36
2023-07-18T11:09:59.895Z,42.77
2023-07-18T11:15:07.740Z,42.77
2023-07-18T11:20:15.339Z,42.78
2023-07-18T11:25:22.044Z,42.71
2023-07-18T11:30:27.707Z,42.87
2023-07-18T11:35:33.361Z,43.00
2023-07-18T11:40:40.043Z,42.00
2023-07-18T11:45:48.041Z,41.78
2023-07-18T11:50:54.964Z,42.27
2023-07-18T11:56:01.170Z,42.38
2023-07-18T12:01:07.283Z,42.03
2023-07-18T12:06:13.111Z,40.91
2023-07-18T12:11:19.881Z,40.74
2023-07-18T12:16:26.537Z,40.44
2023-07-18T12:21:32.032Z,39.58
2023-07-18T12:26:38.936Z,39.41
2023-07-18T12:31:51.192Z,39.09
2023-07-18T12:36:57.942Z,39.06
2023-07-18T12:42:04.359Z,38.99
2023-07-18T12:47:11.423Z,40.06
2023-07-18T12:52:17.800Z,41.11
2023-07-18T12:57:24.226Z,41.81
2023-07-18T13:02:30.611Z,42.52
2023-07-18T13:07:38.166Z,42.72
2023-07-18T13:12:45.211Z,42.71
2023-07-18T13:17:50.795Z,42.82
2023-07-18T13:22:57.450Z,42.78
2023-07-18T13:28:04.205Z,42.71
2023-07-18T13:33:10.680Z,41.14
2023-07-18T13:38:17.052Z,41.19
2023-07-18T13:43:23.036Z,41.35
2023-07-18T13:48:28.658Z,41.37
2023-07-18T13:53:35.131Z,41.51
2023-07-18T13:58:41.438Z,42.63
2023-07-18T14:03:47.348Z,43.77
2023-07-18T14:08:54.327Z,45.21
2023-07-18T14:14:01.142Z,46.21
2023-07-18T14:19:07.975Z,46.99
2023-07-18T14:24:15.037Z,47.56
2023-07-18T14:29:21.992Z,48.01
2023-07-18T14:34:28.374Z,48.16
2023-07-18T14:39:37.279Z,48.58
2023-07-18T14:44:43.553Z,48.93
2023-07-18T14:49:49.616Z,48.76
2023-07-18T14:54:58.673Z,48.61
2023-07-18T15:00:06.707Z,48.30
2023-07-18T15:05:13.315Z,47.93
2023-07-18T15:10:20.113Z,48.04
2023-07-18T15:15:26.382Z,47.68
2023-07-18T15:20:32.718Z,47.78
2023-07-18T15:25:39.842Z,47.64
2023-07-18T15:30:47.108Z,47.57
2023-07-18T15:35:52.736Z,47.24
2023-07-18T15:40:58.892Z,47.22
2023-07-18T15:46:06.065Z,47.26
2023-07-18T15:51:13.363Z,47.13
2023-07-18T15:56:20.319Z,46.24
2023-07-18T16:01:27.374Z,45.47
2023-07-18T16:06:34.587Z,45.28
2023-07-18T16:11:41.418Z,44.77
2023-07-18T16:16:47.768Z,44.43
2023-07-18T16:21:54.828Z,43.94
2023-07-18T16:27:02.116Z,44.43
2023-07-18T16:32:10.414Z,45.32
2023-07-18T16:37:16.709Z,46.06
2023-07-18T16:42:24.694Z,46.53
2023-07-18T16:47:31.756Z,46.74
2023-07-18T16:52:38.878Z,46.91
2023-07-18T16:57:45.097Z,46.93
2023-07-18T17:02:51.866Z,47.10
2023-07-18T17:07:58.145Z,47.16
2023-07-18T17:13:04.611Z,47.06
2023-07-18T17:18:10.942Z,46.94
2023-07-18T17:23:16.604Z,46.84
2023-07-18T17:28:22.931Z,46.68
2023-07-18T17:33:29.837Z,46.64
2023-07-18T17:38:36.136Z,46.73
2023-07-18T17:43:43.250Z,46.62
2023-07-18T17:48:49.928Z,46.79
2023-07-18T17:53:56.636Z,46.91
2023-07-18T17:59:02.494Z,47.01
2023-07-18T18:04:09.186Z,47.11
2023-07-18T18:09:15.504Z,47.35
2023-07-18T18:14:21.718Z,47.47
2023-07-18T18:19:28.046Z,47.87
2023-07-18T18:24:33.885Z,48.08
2023-07-18T18:29:40.392Z,48.31
2023-07-18T18:35:00.967Z,48.70
2023-07-18T18:40:13.309Z,49.00
2023-07-18T18:45:19.254Z,49.42
2023-07-18T18:50:25.013Z,49.68
2023-07-18T18:55:33.769Z,49.96
2023-07-18T19:00:40.641Z,49.94
2023-07-18T19:05:46.535Z,50.23
2023-07-18T19:11:05.166Z,50.40
2023-07-18T19:16:21.628Z,50.52
2023-07-18T19:21:35.565Z,50.42
2023-07-18T19:26:41.254Z,50.15
2023-07-18T19:31:47.234Z,50.34
2023-07-18T19:36:53.881Z,50.37
2023-07-18T19:41:59.742Z,50.22
2023-07-18T19:47:05.901Z,49.85
2023-07-18T19:52:12.279Z,49.62
2023-07-18T19:57:18.037Z,49.96
2023-07-18T20:02:23.900Z,50.50
2023-07-18T20:07:30.193Z,50.82
2023-07-18T20:12:35.952Z,51.19
2023-07-18T20:17:42.203Z,51.40
2023-07-18T20:22:47.961Z,51.43
2023-07-18T20:27:54.290Z,51.15
2023-07-18T20:33:03.524Z,51.21
2023-07-18T20:38:10.509Z,51.58
2023-07-18T20:43:16.679Z,51.94
2023-07-18T20:48:22.226Z,51.68
2023-07-18T20:53:29.009Z,51.52
2023-07-18T20:58:34.754Z,51.22
2023-07-18T21:03:40.503Z,51.33
2023-07-18T21:08:47.511Z,51.43
2023-07-18T21:13:53.137Z,52.28
2023-07-18T21:18:58.744Z,52.00
2023-07-18T21:24:04.943Z,52.04
2023-07-18T21:29:10.583Z,52.09
2023-07-18T21:34:16.140Z,52.48
2023-07-18T21:39:22.115Z,52.56
2023-07-18T21:44:27.926Z,53.45
2023-07-18T21:49:33.574Z,54.06
2023-07-18T21:54:39.354Z,54.13
2023-07-18T21:59:45.357Z,53.95
2023-07-18T22:04:51.156Z,53.70
2023-07-18T22:09:57.525Z,53.46
2023-07-18T22:15:03.524Z,53.55
2023-07-18T22:20:10.211Z,53.60
2023-07-18T22:25:15.779Z,53.34
2023-07-18T22:30:21.350Z,53.34
2023-07-18T22:35:26.862Z,53.35
2023-07-18T22:40:32.735Z,53.81
2023-07-18T22:45:38.373Z,53.87
2023-07-18T22:50:43.805Z,53.93
2023-07-18T22:55:50.531Z,54.31
2023-07-18T23:00:56.383Z,54.29
2023-07-18T23:06:02.274Z,54.65
2023-07-18T23:11:07.657Z,54.64
2023-07-18T23:16:13.400Z,54.63
2023-07-18T23:21:19.554Z,54.97
2023-07-18T23:26:25.615Z,55.18
2023-07-18T23:31:31.220Z,55.65
2023-07-18T23:36:36.901Z,55.58
2023-07-18T23:41:42.893Z,55.79
2023-07-18T23:46:48.657Z,55.31
2023-07-18T23:51:54.577Z,55.27
2023-07-18T23:57:00.380Z,55.46
